sensor_id;sensor_type;location;lat;lon;timestamp;temperature;humidity
70368;DHT22;57789;53.868;10.728;2023-03-23T00:00:37;11.00;99.90
70368;DHT22;57789;53.868;10.728;2023-03-23T00:03:04;11.00;99.90
70368;DHT22;57789;53.868;10.728;2023-03-23T00:05:29;11.00;99.90
70368;DHT22;57789;53.868;10.728;2023-03-23T00:07:55;10.90;99.90
70368;DHT22;57789;53.868;10.728;2023-03-23T00:10:21;10.90;99.90
70368;DHT22;57789;53.868;10.728;2023-03-23T00:12:49;10.80;99.90
70368;DHT22;57789;53.868;10.728;2023-03-23T00:15:15;10.70;99.90
70368;DHT22;57789;53.868;10.728;2023-03-23T00:17:42;10.70;99.90
70368;DHT22;57789;53.868;10.728;2023-03-23T00:20:09;10.60;99.90
70368;DHT22;57789;53.868;10.728;2023-03-23T00:22:37;10.60;99.90
70368;DHT22;57789;53.868;10.728;2023-03-23T00:25:05;10.60;99.90
70368;DHT22;57789;53.868;10.728;2023-03-23T00:27:30;10.60;99.90
70368;DHT22;57789;53.868;10.728;2023-03-23T00:29:56;10.60;99.90
70368;DHT22;57789;53.868;10.728;2023-03-23T00:32:24;10.50;99.90
70368;DHT22;57789;53.868;10.728;2023-03-23T00:34:56;10.50;99.90
70368;DHT22;57789;53.868;10.728;2023-03-23T00:37:25;10.50;99.90
70368;DHT22;57789;53.868;10.728;2023-03-23T00:39:50;10.40;99.90
70368;DHT22;57789;53.868;10.728;2023-03-23T00:42:17;10.40;99.90
70368;DHT22;57789;53.868;10.728;2023-03-23T00:44:43;10.40;99.90
70368;DHT22;57789;53.868;10.728;2023-03-23T00:47:10;10.40;99.90
70368;DHT22;57789;53.868;10.728;2023-03-23T00:49:37;10.30;99.90
70368;DHT22;57789;53.868;10.728;2023-03-23T00:52:05;10.30;99.90
70368;DHT22;57789;53.868;10.728;2023-03-23T00:54:32;10.30;99.90
70368;DHT22;57789;53.868;10.728;2023-03-23T00:57:00;10.20;99.90
70368;DHT22;57789;53.868;10.728;2023-03-23T00:59:25;10.20;99.90
70368;DHT22;57789;53.868;10.728;2023-03-23T01:01:51;10.20;99.90
70368;DHT22;57789;53.868;10.728;2023-03-23T01:04:17;10.20;99.90
70368;DHT22;57789;53.868;10.728;2023-03-23T01:06:44;10.20;99.90
70368;DHT22;57789;53.868;10.728;2023-03-23T01:09:14;10.20;99.90
70368;DHT22;57789;53.868;10.728;2023-03-23T01:11:44;10.10;99.90
70368;DHT22;57789;53.868;10.728;2023-03-23T01:14:11;10.10;99.90
70368;DHT22;57789;53.868;10.728;2023-03-23T01:16:37;10.10;99.90
70368;DHT22;57789;53.868;10.728;2023-03-23T01:19:03;10.10;99.90
70368;DHT22;57789;53.868;10.728;2023-03-23T01:21:28;10.10;99.90
70368;DHT22;57789;53.868;10.728;2023-03-23T01:23:56;10.10;99.90
70368;DHT22;57789;53.868;10.728;2023-03-23T01:26:24;10.10;99.90
70368;DHT22;57789;53.868;10.728;2023-03-23T01:28:51;10.10;99.90
70368;DHT22;57789;53.868;10.728;2023-03-23T01:31:20;10.10;99.90
70368;DHT22;57789;53.868;10.728;2023-03-23T01:33:46;10.10;99.90
70368;DHT22;57789;53.868;10.728;2023-03-23T01:36:14;10.10;99.90
70368;DHT22;57789;53.868;10.728;2023-03-23T01:38:42;10.10;99.90
70368;DHT22;57789;53.868;10.728;2023-03-23T01:41:07;10.10;99.90
70368;DHT22;57789;53.868;10.728;2023-03-23T01:43:33;10.10;99.90
70368;DHT22;57789;53.868;10.728;2023-03-23T01:45:59;10.10;99.90
70368;DHT22;57789;53.868;10.728;2023-03-23T01:48:32;10.10;99.90
70368;DHT22;57789;53.868;10.728;2023-03-23T01:51:11;10.10;99.90
70368;DHT22;57789;53.868;10.728;2023-03-23T01:53:52;10.10;99.90
70368;DHT22;57789;53.868;10.728;2023-03-23T01:56:21;10.10;99.90
70368;DHT22;57789;53.868;10.728;2023-03-23T01:58:50;10.10;99.90
70368;DHT22;57789;53.868;10.728;2023-03-23T02:01:16;10.10;99.90
70368;DHT22;57789;53.868;10.728;2023-03-23T02:03:44;10.20;99.90
70368;DHT22;57789;53.868;10.728;2023-03-23T02:06:11;10.10;99.90
70368;DHT22;57789;53.868;10.728;2023-03-23T02:08:39;10.10;99.90
70368;DHT22;57789;53.868;10.728;2023-03-23T02:11:21;10.10;99.90
70368;DHT22;57789;53.868;10.728;2023-03-23T02:13:47;10.10;99.90
70368;DHT22;57789;53.868;10.728;2023-03-23T02:19:05;10.10;99.90
70368;DHT22;57789;53.868;10.728;2023-03-23T02:32:29;10.00;99.90
70368;DHT22;57789;53.868;10.728;2023-03-23T02:35:12;10.00;99.90
70368;DHT22;57789;53.868;10.728;2023-03-23T02:37:46;10.00;99.90
70368;DHT22;57789;53.868;10.728;2023-03-23T02:40:19;9.90;99.90
70368;DHT22;57789;53.868;10.728;2023-03-23T02:42:49;9.90;99.90
70368;DHT22;57789;53.868;10.728;2023-03-23T02:45:16;9.90;99.90
70368;DHT22;57789;53.868;10.728;2023-03-23T02:47:43;10.00;99.90
70368;DHT22;57789;53.868;10.728;2023-03-23T02:50:14;10.10;99.90
70368;DHT22;57789;53.868;10.728;2023-03-23T02:52:41;10.00;99.90
70368;DHT22;57789;53.868;10.728;2023-03-23T02:55:10;10.10;99.90
70368;DHT22;57789;53.868;10.728;2023-03-23T02:57:37;10.00;99.90
70368;DHT22;57789;53.868;10.728;2023-03-23T03:00:10;10.10;99.90
70368;DHT22;57789;53.868;10.728;2023-03-23T03:02:41;10.00;99.90
70368;DHT22;57789;53.868;10.728;2023-03-23T03:07:58;10.00;99.90
70368;DHT22;57789;53.868;10.728;2023-03-23T03:10:31;10.00;99.90
70368;DHT22;57789;53.868;10.728;2023-03-23T03:15:58;10.10;99.90
70368;DHT22;57789;53.868;10.728;2023-03-23T03:18:44;10.10;99.90
70368;DHT22;57789;53.868;10.728;2023-03-23T03:21:12;10.00;99.90
70368;DHT22;57789;53.868;10.728;2023-03-23T03:23:41;10.00;99.90
70368;DHT22;57789;53.868;10.728;2023-03-23T03:26:11;10.00;99.90
70368;DHT22;57789;53.868;10.728;2023-03-23T03:28:37;10.00;99.90
70368;DHT22;57789;53.868;10.728;2023-03-23T03:31:04;10.00;99.90
70368;DHT22;57789;53.868;10.728;2023-03-23T03:33:31;10.10;99.90
70368;DHT22;57789;53.868;10.728;2023-03-23T03:36:01;10.10;99.90
70368;DHT22;57789;53.868;10.728;2023-03-23T03:38:27;10.10;99.90
70368;DHT22;57789;53.868;10.728;2023-03-23T03:40:54;10.10;99.90
70368;DHT22;57789;53.868;10.728;2023-03-23T03:43:20;10.10;99.90
70368;DHT22;57789;53.868;10.728;2023-03-23T03:45:45;10.20;99.90
70368;DHT22;57789;53.868;10.728;2023-03-23T03:48:11;10.20;99.90
70368;DHT22;57789;53.868;10.728;2023-03-23T03:50:37;10.20;99.90
70368;DHT22;57789;53.868;10.728;2023-03-23T03:53:04;10.20;99.90
70368;DHT22;57789;53.868;10.728;2023-03-23T03:55:31;10.20;99.90
70368;DHT22;57789;53.868;10.728;2023-03-23T03:58:02;10.20;99.90
70368;DHT22;57789;53.868;10.728;2023-03-23T04:00:30;10.20;99.90
70368;DHT22;57789;53.868;10.728;2023-03-23T04:02:56;10.20;99.90
70368;DHT22;57789;53.868;10.728;2023-03-23T04:05:22;10.20;99.90
70368;DHT22;57789;53.868;10.728;2023-03-23T04:07:50;10.20;99.90
70368;DHT22;57789;53.868;10.728;2023-03-23T04:10:19;10.20;99.90
70368;DHT22;57789;53.868;10.728;2023-03-23T04:12:49;10.20;99.90
70368;DHT22;57789;53.868;10.728;2023-03-23T04:15:16;10.20;99.90
70368;DHT22;57789;53.868;10.728;2023-03-23T04:17:41;10.20;99.90
70368;DHT22;57789;53.868;10.728;2023-03-23T04:20:08;10.20;99.90
70368;DHT22;57789;53.868;10.728;2023-03-23T04:22:40;10.20;99.90
70368;DHT22;57789;53.868;10.728;2023-03-23T04:25:09;10.20;99.90
70368;DHT22;57789;53.868;10.728;2023-03-23T04:27:40;10.20;99.90
70368;DHT22;57789;53.868;10.728;2023-03-23T04:30:10;10.20;99.90
70368;DHT22;57789;53.868;10.728;2023-03-23T04:32:36;10.20;99.90
70368;DHT22;57789;53.868;10.728;2023-03-23T04:35:08;10.20;99.90
70368;DHT22;57789;53.868;10.728;2023-03-23T04:37:34;10.30;99.90
70368;DHT22;57789;53.868;10.728;2023-03-23T04:40:00;10.20;99.90
70368;DHT22;57789;53.868;10.728;2023-03-23T04:42:30;10.20;99.90
70368;DHT22;57789;53.868;10.728;2023-03-23T04:45:00;10.30;99.90
70368;DHT22;57789;53.868;10.728;2023-03-23T04:47:27;10.30;99.90
70368;DHT22;57789;53.868;10.728;2023-03-23T04:49:56;10.20;99.90
70368;DHT22;57789;53.868;10.728;2023-03-23T04:52:27;10.20;99.90
70368;DHT22;57789;53.868;10.728;2023-03-23T04:54:54;10.20;99.90
70368;DHT22;57789;53.868;10.728;2023-03-23T04:57:21;10.20;99.90
70368;DHT22;57789;53.868;10.728;2023-03-23T04:59:47;10.20;99.90
70368;DHT22;57789;53.868;10.728;2023-03-23T05:02:14;10.30;99.90
70368;DHT22;57789;53.868;10.728;2023-03-23T05:04:40;10.20;99.90
70368;DHT22;57789;53.868;10.728;2023-03-23T05:07:08;10.20;99.90
70368;DHT22;57789;53.868;10.728;2023-03-23T05:09:35;10.20;99.90
70368;DHT22;57789;53.868;10.728;2023-03-23T05:12:09;10.20;99.90
70368;DHT22;57789;53.868;10.728;2023-03-23T05:14:35;10.20;99.90
70368;DHT22;57789;53.868;10.728;2023-03-23T05:17:01;10.20;99.90
70368;DHT22;57789;53.868;10.728;2023-03-23T05:19:27;10.20;99.90
70368;DHT22;57789;53.868;10.728;2023-03-23T05:21:54;10.30;99.90
70368;DHT22;57789;53.868;10.728;2023-03-23T05:24:21;10.20;99.90
70368;DHT22;57789;53.868;10.728;2023-03-23T05:26:47;10.30;99.90
70368;DHT22;57789;53.868;10.728;2023-03-23T05:29:14;10.20;99.90
70368;DHT22;57789;53.868;10.728;2023-03-23T05:31:41;10.20;99.90
70368;DHT22;57789;53.868;10.728;2023-03-23T05:34:06;10.20;99.90
70368;DHT22;57789;53.868;10.728;2023-03-23T05:36:32;10.20;99.90
70368;DHT22;57789;53.868;10.728;2023-03-23T05:38:57;10.20;99.90
70368;DHT22;57789;53.868;10.728;2023-03-23T05:41:25;10.20;99.90
70368;DHT22;57789;53.868;10.728;2023-03-23T05:43:51;10.20;99.90
70368;DHT22;57789;53.868;10.728;2023-03-23T05:46:17;10.20;99.90
70368;DHT22;57789;53.868;10.728;2023-03-23T05:48:43;10.20;99.90
70368;DHT22;57789;53.868;10.728;2023-03-23T05:51:09;10.30;99.90
70368;DHT22;57789;53.868;10.728;2023-03-23T05:53:35;10.30;99.90
70368;DHT22;57789;53.868;10.728;2023-03-23T05:56:02;10.30;99.90
70368;DHT22;57789;53.868;10.728;2023-03-23T05:58:29;10.30;99.90
70368;DHT22;57789;53.868;10.728;2023-03-23T06:00:55;10.30;99.90
70368;DHT22;57789;53.868;10.728;2023-03-23T06:03:22;10.40;99.90
70368;DHT22;57789;53.868;10.728;2023-03-23T06:05:48;10.40;99.90
70368;DHT22;57789;53.868;10.728;2023-03-23T06:08:14;10.40;99.90
70368;DHT22;57789;53.868;10.728;2023-03-23T06:10:39;10.40;99.90
70368;DHT22;57789;53.868;10.728;2023-03-23T06:13:05;10.40;99.90
70368;DHT22;57789;53.868;10.728;2023-03-23T06:15:31;10.40;99.90
70368;DHT22;57789;53.868;10.728;2023-03-23T06:18:04;10.40;99.90
70368;DHT22;57789;53.868;10.728;2023-03-23T06:20:30;10.50;99.90
70368;DHT22;57789;53.868;10.728;2023-03-23T06:22:56;10.50;99.90
70368;DHT22;57789;53.868;10.728;2023-03-23T06:25:22;10.50;99.90
70368;DHT22;57789;53.868;10.728;2023-03-23T06:27:49;10.40;99.90
70368;DHT22;57789;53.868;10.728;2023-03-23T06:30:14;10.50;99.90
70368;DHT22;57789;53.868;10.728;2023-03-23T06:32:41;10.50;99.90
70368;DHT22;57789;53.868;10.728;2023-03-23T06:35:09;10.50;99.90
70368;DHT22;57789;53.868;10.728;2023-03-23T06:37:36;10.60;99.90
70368;DHT22;57789;53.868;10.728;2023-03-23T06:40:03;10.60;99.90
70368;DHT22;57789;53.868;10.728;2023-03-23T06:42:32;10.60;99.90
70368;DHT22;57789;53.868;10.728;2023-03-23T06:44:58;10.60;99.90
70368;DHT22;57789;53.868;10.728;2023-03-23T06:47:29;10.70;99.90
70368;DHT22;57789;53.868;10.728;2023-03-23T06:49:55;10.80;99.90
70368;DHT22;57789;53.868;10.728;2023-03-23T06:52:22;10.80;99.90
70368;DHT22;57789;53.868;10.728;2023-03-23T06:54:49;10.80;99.90
70368;DHT22;57789;53.868;10.728;2023-03-23T06:57:15;10.80;99.90
70368;DHT22;57789;53.868;10.728;2023-03-23T06:59:41;10.90;99.90
70368;DHT22;57789;53.868;10.728;2023-03-23T07:02:09;11.00;99.90
70368;DHT22;57789;53.868;10.728;2023-03-23T07:04:37;11.10;99.90
70368;DHT22;57789;53.868;10.728;2023-03-23T07:07:04;11.20;99.90
70368;DHT22;57789;53.868;10.728;2023-03-23T07:09:30;11.30;99.90
70368;DHT22;57789;53.868;10.728;2023-03-23T07:11:56;11.40;99.90
70368;DHT22;57789;53.868;10.728;2023-03-23T07:14:22;11.50;99.90
70368;DHT22;57789;53.868;10.728;2023-03-23T07:16:48;11.50;99.90
70368;DHT22;57789;53.868;10.728;2023-03-23T07:19:14;11.50;99.90
70368;DHT22;57789;53.868;10.728;2023-03-23T07:21:40;11.60;99.90
70368;DHT22;57789;53.868;10.728;2023-03-23T07:24:09;11.70;99.90
70368;DHT22;57789;53.868;10.728;2023-03-23T07:26:36;11.70;99.90
70368;DHT22;57789;53.868;10.728;2023-03-23T07:29:01;11.70;99.90
70368;DHT22;57789;53.868;10.728;2023-03-23T07:31:27;11.70;99.90
70368;DHT22;57789;53.868;10.728;2023-03-23T07:33:53;11.80;99.90
70368;DHT22;57789;53.868;10.728;2023-03-23T07:36:18;11.80;99.90
70368;DHT22;57789;53.868;10.728;2023-03-23T07:38:44;11.80;99.90
70368;DHT22;57789;53.868;10.728;2023-03-23T07:41:10;11.90;99.90
70368;DHT22;57789;53.868;10.728;2023-03-23T07:43:35;11.90;99.90
70368;DHT22;57789;53.868;10.728;2023-03-23T07:46:01;11.90;99.90
70368;DHT22;57789;53.868;10.728;2023-03-23T07:48:27;12.00;99.90
70368;DHT22;57789;53.868;10.728;2023-03-23T07:50:53;12.00;99.90
70368;DHT22;57789;53.868;10.728;2023-03-23T07:53:18;12.10;99.90
70368;DHT22;57789;53.868;10.728;2023-03-23T07:55:46;12.20;99.90
70368;DHT22;57789;53.868;10.728;2023-03-23T07:58:12;12.30;99.90
70368;DHT22;57789;53.868;10.728;2023-03-23T08:00:43;12.30;99.90
70368;DHT22;57789;53.868;10.728;2023-03-23T08:03:10;12.30;99.90
70368;DHT22;57789;53.868;10.728;2023-03-23T08:05:35;12.20;99.90
70368;DHT22;57789;53.868;10.728;2023-03-23T08:08:01;12.10;99.90
70368;DHT22;57789;53.868;10.728;2023-03-23T08:10:27;12.00;99.90
70368;DHT22;57789;53.868;10.728;2023-03-23T08:12:55;12.00;99.90
70368;DHT22;57789;53.868;10.728;2023-03-23T08:15:22;12.00;99.90
70368;DHT22;57789;53.868;10.728;2023-03-23T08:17:49;11.90;99.90
70368;DHT22;57789;53.868;10.728;2023-03-23T08:20:16;11.90;99.90
70368;DHT22;57789;53.868;10.728;2023-03-23T08:22:48;12.00;99.90
70368;DHT22;57789;53.868;10.728;2023-03-23T08:25:14;12.00;99.90
70368;DHT22;57789;53.868;10.728;2023-03-23T08:27:42;12.10;99.90
70368;DHT22;57789;53.868;10.728;2023-03-23T08:30:14;12.20;99.90
70368;DHT22;57789;53.868;10.728;2023-03-23T08:32:41;12.20;99.90
70368;DHT22;57789;53.868;10.728;2023-03-23T08:35:08;12.20;99.90
70368;DHT22;57789;53.868;10.728;2023-03-23T08:37:35;12.10;99.90
70368;DHT22;57789;53.868;10.728;2023-03-23T08:40:01;12.00;99.90
70368;DHT22;57789;53.868;10.728;2023-03-23T08:42:32;11.80;99.90
70368;DHT22;57789;53.868;10.728;2023-03-23T08:44:58;11.70;99.90
70368;DHT22;57789;53.868;10.728;2023-03-23T08:47:24;11.60;99.90
70368;DHT22;57789;53.868;10.728;2023-03-23T08:49:50;11.50;99.90
70368;DHT22;57789;53.868;10.728;2023-03-23T08:52:18;11.30;99.90
70368;DHT22;57789;53.868;10.728;2023-03-23T08:54:44;11.00;99.90
70368;DHT22;57789;53.868;10.728;2023-03-23T08:57:13;10.80;99.90
70368;DHT22;57789;53.868;10.728;2023-03-23T08:59:40;10.50;99.90
70368;DHT22;57789;53.868;10.728;2023-03-23T09:02:09;10.40;99.90
70368;DHT22;57789;53.868;10.728;2023-03-23T09:04:35;10.30;99.90
70368;DHT22;57789;53.868;10.728;2023-03-23T09:07:02;10.20;99.90
70368;DHT22;57789;53.868;10.728;2023-03-23T09:09:28;10.20;99.90
70368;DHT22;57789;53.868;10.728;2023-03-23T09:11:54;10.20;99.90
70368;DHT22;57789;53.868;10.728;2023-03-23T09:14:20;10.20;99.90
70368;DHT22;57789;53.868;10.728;2023-03-23T09:16:45;10.30;99.90
70368;DHT22;57789;53.868;10.728;2023-03-23T09:19:12;10.40;99.90
70368;DHT22;57789;53.868;10.728;2023-03-23T09:21:38;10.40;99.90
70368;DHT22;57789;53.868;10.728;2023-03-23T09:24:04;10.50;99.90
70368;DHT22;57789;53.868;10.728;2023-03-23T09:26:31;10.50;99.90
70368;DHT22;57789;53.868;10.728;2023-03-23T09:28:57;10.70;99.90
70368;DHT22;57789;53.868;10.728;2023-03-23T09:31:23;10.80;99.90
70368;DHT22;57789;53.868;10.728;2023-03-23T09:33:52;10.90;99.90
70368;DHT22;57789;53.868;10.728;2023-03-23T09:36:21;11.10;99.90
70368;DHT22;57789;53.868;10.728;2023-03-23T09:38:48;11.10;99.90
70368;DHT22;57789;53.868;10.728;2023-03-23T09:52:46;11.20;99.90
70368;DHT22;57789;53.868;10.728;2023-03-23T09:55:16;11.20;99.90
70368;DHT22;57789;53.868;10.728;2023-03-23T09:57:58;11.40;99.90
70368;DHT22;57789;53.868;10.728;2023-03-23T10:00:36;11.60;99.90
70368;DHT22;57789;53.868;10.728;2023-03-23T10:03:06;11.80;99.90
70368;DHT22;57789;53.868;10.728;2023-03-23T10:05:37;11.80;99.90
70368;DHT22;57789;53.868;10.728;2023-03-23T10:08:33;11.80;99.90
70368;DHT22;57789;53.868;10.728;2023-03-23T10:11:04;12.00;99.90
70368;DHT22;57789;53.868;10.728;2023-03-23T10:16:11;12.30;99.90
70368;DHT22;57789;53.868;10.728;2023-03-23T10:18:41;12.40;99.90
70368;DHT22;57789;53.868;10.728;2023-03-23T10:21:20;12.60;99.90
70368;DHT22;57789;53.868;10.728;2023-03-23T10:23:59;12.90;99.90
70368;DHT22;57789;53.868;10.728;2023-03-23T10:29:19;13.00;99.90
70368;DHT22;57789;53.868;10.728;2023-03-23T10:32:02;13.10;99.90
70368;DHT22;57789;53.868;10.728;2023-03-23T10:34:49;13.10;99.90
70368;DHT22;57789;53.868;10.728;2023-03-23T10:37:31;13.00;99.90
70368;DHT22;57789;53.868;10.728;2023-03-23T10:39:59;13.10;99.90
70368;DHT22;57789;53.868;10.728;2023-03-23T10:44:54;13.80;99.90
70368;DHT22;57789;53.868;10.728;2023-03-23T10:47:21;13.90;99.90
70368;DHT22;57789;53.868;10.728;2023-03-23T10:50:12;14.00;99.90
70368;DHT22;57789;53.868;10.728;2023-03-23T10:52:41;14.00;99.90
70368;DHT22;57789;53.868;10.728;2023-03-23T10:55:21;14.00;99.90
70368;DHT22;57789;53.868;10.728;2023-03-23T10:58:06;14.10;99.90
70368;DHT22;57789;53.868;10.728;2023-03-23T11:00:33;13.80;99.90
70368;DHT22;57789;53.868;10.728;2023-03-23T11:05:47;13.70;99.90
70368;DHT22;57789;53.868;10.728;2023-03-23T11:08:54;13.80;99.90
70368;DHT22;57789;53.868;10.728;2023-03-23T11:11:29;13.80;99.90
70368;DHT22;57789;53.868;10.728;2023-03-23T11:16:52;13.80;99.90
70368;DHT22;57789;53.868;10.728;2023-03-23T11:19:28;14.00;99.90
70368;DHT22;57789;53.868;10.728;2023-03-23T11:21:59;13.80;99.90
70368;DHT22;57789;53.868;10.728;2023-03-23T11:24:26;13.80;99.90
70368;DHT22;57789;53.868;10.728;2023-03-23T11:26:53;13.80;99.90
70368;DHT22;57789;53.868;10.728;2023-03-23T11:29:20;14.00;99.90
70368;DHT22;57789;53.868;10.728;2023-03-23T11:31:53;14.00;99.90
70368;DHT22;57789;53.868;10.728;2023-03-23T11:34:26;13.90;99.90
70368;DHT22;57789;53.868;10.728;2023-03-23T11:40:21;14.00;99.90
70368;DHT22;57789;53.868;10.728;2023-03-23T11:42:26;14.20;99.90
70368;DHT22;57789;53.868;10.728;2023-03-23T11:51:01;14.40;99.90
70368;DHT22;57789;53.868;10.728;2023-03-23T11:56:14;14.30;99.90
70368;DHT22;57789;53.868;10.728;2023-03-23T11:58:42;14.50;99.90
70368;DHT22;57789;53.868;10.728;2023-03-23T12:17:41;13.90;99.90
70368;DHT22;57789;53.868;10.728;2023-03-23T12:31:04;14.10;99.90
70368;DHT22;57789;53.868;10.728;2023-03-23T12:33:45;13.90;99.90
70368;DHT22;57789;53.868;10.728;2023-03-23T12:44:43;13.70;99.90
70368;DHT22;57789;53.868;10.728;2023-03-23T12:50:15;13.70;99.90
70368;DHT22;57789;53.868;10.728;2023-03-23T12:57:54;14.00;99.90
70368;DHT22;57789;53.868;10.728;2023-03-23T13:01:10;14.00;99.90
70368;DHT22;57789;53.868;10.728;2023-03-23T13:03:45;13.90;99.90
70368;DHT22;57789;53.868;10.728;2023-03-23T13:06:33;13.70;99.90
70368;DHT22;57789;53.868;10.728;2023-03-23T13:11:44;14.10;99.90
70368;DHT22;57789;53.868;10.728;2023-03-23T13:14:37;14.10;99.90
70368;DHT22;57789;53.868;10.728;2023-03-23T13:17:16;14.20;99.90
70368;DHT22;57789;53.868;10.728;2023-03-23T13:20:13;14.20;99.90
70368;DHT22;57789;53.868;10.728;2023-03-23T13:22:50;14.60;99.90
70368;DHT22;57789;53.868;10.728;2023-03-23T13:28:30;14.70;99.90
70368;DHT22;57789;53.868;10.728;2023-03-23T13:31:03;14.80;99.90
70368;DHT22;57789;53.868;10.728;2023-03-23T13:33:35;14.90;99.90
70368;DHT22;57789;53.868;10.728;2023-03-23T13:36:14;14.60;99.90
70368;DHT22;57789;53.868;10.728;2023-03-23T13:38:49;14.70;99.90
70368;DHT22;57789;53.868;10.728;2023-03-23T13:41:17;14.90;99.90
70368;DHT22;57789;53.868;10.728;2023-03-23T13:43:45;14.70;99.90
70368;DHT22;57789;53.868;10.728;2023-03-23T13:46:27;14.40;99.90
70368;DHT22;57789;53.868;10.728;2023-03-23T13:54:37;13.60;99.90
70368;DHT22;57789;53.868;10.728;2023-03-23T13:57:26;13.30;99.90
70368;DHT22;57789;53.868;10.728;2023-03-23T13:59:58;13.10;99.90
70368;DHT22;57789;53.868;10.728;2023-03-23T14:02:44;13.10;99.90
70368;DHT22;57789;53.868;10.728;2023-03-23T14:07:57;12.80;99.90
70368;DHT22;57789;53.868;10.728;2023-03-23T14:10:32;12.70;99.90
70368;DHT22;57789;53.868;10.728;2023-03-23T14:13:00;12.70;99.90
70368;DHT22;57789;53.868;10.728;2023-03-23T14:15:36;12.70;99.90
70368;DHT22;57789;53.868;10.728;2023-03-23T14:18:03;12.70;99.90
70368;DHT22;57789;53.868;10.728;2023-03-23T14:20:33;12.70;99.90
70368;DHT22;57789;53.868;10.728;2023-03-23T14:23:00;12.70;99.90
70368;DHT22;57789;53.868;10.728;2023-03-23T14:25:30;12.70;99.90
70368;DHT22;57789;53.868;10.728;2023-03-23T14:27:59;12.60;99.90
70368;DHT22;57789;53.868;10.728;2023-03-23T14:30:27;12.60;99.90
70368;DHT22;57789;53.868;10.728;2023-03-23T14:33:01;12.50;99.90
70368;DHT22;57789;53.868;10.728;2023-03-23T14:35:34;12.30;99.90
70368;DHT22;57789;53.868;10.728;2023-03-23T14:38:01;11.90;99.90
70368;DHT22;57789;53.868;10.728;2023-03-23T14:40:29;11.40;99.90
70368;DHT22;57789;53.868;10.728;2023-03-23T14:42:56;11.00;99.90
70368;DHT22;57789;53.868;10.728;2023-03-23T14:45:23;10.70;99.90
70368;DHT22;57789;53.868;10.728;2023-03-23T14:47:56;10.50;99.90
70368;DHT22;57789;53.868;10.728;2023-03-23T14:53:23;10.40;99.90
70368;DHT22;57789;53.868;10.728;2023-03-23T14:55:52;10.40;99.90
70368;DHT22;57789;53.868;10.728;2023-03-23T14:58:22;10.30;99.90
70368;DHT22;57789;53.868;10.728;2023-03-23T15:01:08;10.20;99.90
70368;DHT22;57789;53.868;10.728;2023-03-23T15:03:38;10.20;99.90
70368;DHT22;57789;53.868;10.728;2023-03-23T15:06:12;10.10;99.90
70368;DHT22;57789;53.868;10.728;2023-03-23T15:08:39;10.00;99.90
70368;DHT22;57789;53.868;10.728;2023-03-23T15:13:34;10.10;99.90
70368;DHT22;57789;53.868;10.728;2023-03-23T15:16:15;10.20;99.90
70368;DHT22;57789;53.868;10.728;2023-03-23T15:18:49;10.20;99.90
70368;DHT22;57789;53.868;10.728;2023-03-23T15:21:26;10.20;99.90
70368;DHT22;57789;53.868;10.728;2023-03-23T15:23:52;10.70;99.90
70368;DHT22;57789;53.868;10.728;2023-03-23T15:29:14;12.10;99.90
70368;DHT22;57789;53.868;10.728;2023-03-23T15:31:48;12.50;99.90
70368;DHT22;57789;53.868;10.728;2023-03-23T15:34:20;12.70;99.90
70368;DHT22;57789;53.868;10.728;2023-03-23T15:36:51;13.30;99.90
70368;DHT22;57789;53.868;10.728;2023-03-23T15:39:17;13.60;99.90
70368;DHT22;57789;53.868;10.728;2023-03-23T15:41:51;13.90;99.90
70368;DHT22;57789;53.868;10.728;2023-03-23T15:44:27;13.90;99.90
70368;DHT22;57789;53.868;10.728;2023-03-23T15:47:04;13.90;99.90
70368;DHT22;57789;53.868;10.728;2023-03-23T15:49:35;14.00;99.90
70368;DHT22;57789;53.868;10.728;2023-03-23T15:52:01;14.00;99.90
70368;DHT22;57789;53.868;10.728;2023-03-23T15:54:30;13.80;99.90
70368;DHT22;57789;53.868;10.728;2023-03-23T15:56:56;13.50;99.90
70368;DHT22;57789;53.868;10.728;2023-03-23T15:59:22;13.80;99.90
70368;DHT22;57789;53.868;10.728;2023-03-23T16:01:48;13.80;99.90
70368;DHT22;57789;53.868;10.728;2023-03-23T16:04:16;14.10;99.90
70368;DHT22;57789;53.868;10.728;2023-03-23T16:06:42;13.80;99.90
70368;DHT22;57789;53.868;10.728;2023-03-23T16:09:16;13.50;99.90
70368;DHT22;57789;53.868;10.728;2023-03-23T16:11:42;13.20;99.90
70368;DHT22;57789;53.868;10.728;2023-03-23T16:14:09;13.00;99.90
70368;DHT22;57789;53.868;10.728;2023-03-23T16:16:44;12.80;99.90
70368;DHT22;57789;53.868;10.728;2023-03-23T16:19:12;12.60;99.90
70368;DHT22;57789;53.868;10.728;2023-03-23T16:21:38;12.70;99.90
70368;DHT22;57789;53.868;10.728;2023-03-23T16:24:04;12.70;99.90
70368;DHT22;57789;53.868;10.728;2023-03-23T16:26:30;12.60;99.90
70368;DHT22;57789;53.868;10.728;2023-03-23T16:28:55;12.60;99.90
70368;DHT22;57789;53.868;10.728;2023-03-23T16:31:21;12.40;99.90
70368;DHT22;57789;53.868;10.728;2023-03-23T16:33:47;12.20;99.90
70368;DHT22;57789;53.868;10.728;2023-03-23T16:36:13;12.10;99.90
70368;DHT22;57789;53.868;10.728;2023-03-23T16:38:40;11.90;99.90
70368;DHT22;57789;53.868;10.728;2023-03-23T16:41:06;11.80;99.90
70368;DHT22;57789;53.868;10.728;2023-03-23T16:43:33;11.60;99.90
70368;DHT22;57789;53.868;10.728;2023-03-23T16:45:59;11.40;99.90
70368;DHT22;57789;53.868;10.728;2023-03-23T16:48:25;11.30;99.90
70368;DHT22;57789;53.868;10.728;2023-03-23T16:50:51;11.30;99.90
70368;DHT22;57789;53.868;10.728;2023-03-23T16:53:20;11.30;99.90
70368;DHT22;57789;53.868;10.728;2023-03-23T16:55:46;11.30;99.90
70368;DHT22;57789;53.868;10.728;2023-03-23T16:58:15;11.30;99.90
70368;DHT22;57789;53.868;10.728;2023-03-23T17:00:41;11.30;99.90
70368;DHT22;57789;53.868;10.728;2023-03-23T17:03:07;11.30;99.90
70368;DHT22;57789;53.868;10.728;2023-03-23T17:05:34;11.30;99.90
70368;DHT22;57789;53.868;10.728;2023-03-23T17:08:00;11.30;99.90
70368;DHT22;57789;53.868;10.728;2023-03-23T17:10:27;11.30;99.90
70368;DHT22;57789;53.868;10.728;2023-03-23T17:12:54;11.30;99.90
70368;DHT22;57789;53.868;10.728;2023-03-23T17:15:20;11.30;99.90
70368;DHT22;57789;53.868;10.728;2023-03-23T17:17:45;11.20;99.90
70368;DHT22;57789;53.868;10.728;2023-03-23T17:20:12;11.20;99.90
70368;DHT22;57789;53.868;10.728;2023-03-23T17:22:38;11.10;99.90
70368;DHT22;57789;53.868;10.728;2023-03-23T17:25:05;11.00;99.90
70368;DHT22;57789;53.868;10.728;2023-03-23T17:27:33;10.90;99.90
70368;DHT22;57789;53.868;10.728;2023-03-23T17:29:58;10.80;99.90